createdAt,value
2022-10-18T00:02:12.717Z,7.07
2022-10-18T00:04:38.593Z,5.95
2022-10-18T00:07:04.380Z,5.82
2022-10-18T00:09:30.230Z,5.50
2022-10-18T00:11:56.416Z,9.18
2022-10-18T00:14:22.463Z,5.35
2022-10-18T00:16:49.397Z,9.07
2022-10-18T00:19:15.168Z,13.07
2022-10-18T00:21:41.013Z,11.10
2022-10-18T00:24:06.784Z,9.13
2022-10-18T00:26:32.610Z,7.20
2022-10-18T00:29:01.954Z,5.80
2022-10-18T00:31:30.874Z,7.05
2022-10-18T00:33:59.184Z,8.25
2022-10-18T00:36:27.624Z,7.00
2022-10-18T00:38:53.722Z,6.38
2022-10-18T00:41:24.214Z,8.20
2022-10-18T00:44:02.039Z,7.47
2022-10-18T00:46:33.358Z,8.20
2022-10-18T00:49:02.089Z,9.80
2022-10-18T00:51:33.238Z,9.18
2022-10-18T00:53:59.468Z,8.68
2022-10-18T00:56:25.726Z,9.95
2022-10-18T00:58:51.855Z,11.43
2022-10-18T01:01:17.666Z,9.00
2022-10-18T01:03:43.743Z,9.23
2022-10-18T01:06:09.620Z,13.82
2022-10-18T01:08:54.942Z,9.20
2022-10-18T01:11:31.538Z,11.02
2022-10-18T01:14:13.641Z,9.80
2022-10-18T01:17:07.483Z,9.38
2022-10-18T01:19:42.154Z,7.95
2022-10-18T01:22:11.032Z,6.15
2022-10-18T01:24:45.589Z,9.00
2022-10-18T01:27:32.879Z,5.03
2022-10-18T01:30:31.948Z,4.78
2022-10-18T01:33:15.844Z,5.70
2022-10-18T01:35:49.548Z,3.08
2022-10-18T01:38:18.660Z,4.60
2022-10-18T01:40:48.747Z,5.40
2022-10-18T01:43:16.994Z,7.40
2022-10-18T01:45:42.912Z,7.53
2022-10-18T01:48:10.985Z,7.82
2022-10-18T01:50:36.869Z,4.45
2022-10-18T01:53:02.627Z,4.65
2022-10-18T01:55:33.943Z,5.03
2022-10-18T01:58:12.163Z,8.18
2022-10-18T02:00:41.613Z,5.40
2022-10-18T02:03:25.123Z,6.35
2022-10-18T02:05:58.233Z,9.82
2022-10-18T02:08:50.274Z,8.80
2022-10-18T02:11:17.504Z,7.20
2022-10-18T02:13:46.123Z,9.48
2022-10-18T02:16:35.267Z,9.70
2022-10-18T02:19:09.844Z,6.45
2022-10-18T02:21:40.413Z,7.10
2022-10-18T02:24:07.299Z,6.90
2022-10-18T02:26:33.305Z,6.88
2022-10-18T02:28:59.288Z,7.45
2022-10-18T02:31:30.949Z,7.85
2022-10-18T02:34:01.338Z,7.82
2022-10-18T02:36:40.068Z,7.15
2022-10-18T02:39:13.749Z,6.47
2022-10-18T02:41:39.722Z,6.78
2022-10-18T02:44:05.517Z,8.38
2022-10-18T02:46:31.309Z,6.95
2022-10-18T02:48:57.082Z,6.55
2022-10-18T02:51:23.047Z,4.88
2022-10-18T02:53:48.843Z,4.63
2022-10-18T02:56:14.608Z,5.22
2022-10-18T02:58:40.404Z,4.53
2022-10-18T03:01:06.191Z,4.43
2022-10-18T03:03:31.956Z,4.35
2022-10-18T03:05:57.753Z,3.97
2022-10-18T03:08:23.477Z,5.22
2022-10-18T03:10:49.256Z,5.07
2022-10-18T03:13:15.158Z,3.88
2022-10-18T03:15:41.558Z,6.40
2022-10-18T03:18:07.452Z,5.32
2022-10-18T03:20:34.492Z,5.43
2022-10-18T03:23:00.224Z,6.53
2022-10-18T03:25:25.957Z,4.32
2022-10-18T03:27:51.728Z,8.32
2022-10-18T03:30:17.589Z,4.78
2022-10-18T03:32:43.529Z,6.43
2022-10-18T03:35:09.467Z,5.03
2022-10-18T03:37:35.487Z,19.35
2022-10-18T03:40:01.647Z,6.80
2022-10-18T03:42:27.543Z,9.65
2022-10-18T03:44:53.263Z,9.10
2022-10-18T03:47:19.032Z,8.35
2022-10-18T03:49:44.794Z,13.10
2022-10-18T03:52:10.583Z,9.13
2022-10-18T03:54:36.404Z,9.68
2022-10-18T03:57:02.336Z,10.10
2022-10-18T03:59:28.074Z,10.25
2022-10-18T04:01:53.879Z,12.35
2022-10-18T04:04:19.648Z,14.57
2022-10-18T04:06:45.416Z,12.30
2022-10-18T04:09:11.551Z,10.77
2022-10-18T04:11:37.397Z,13.63
2022-10-18T04:14:03.413Z,15.60
2022-10-18T04:16:29.244Z,16.90
2022-10-18T04:18:54.976Z,14.98
2022-10-18T04:21:20.771Z,15.93
2022-10-18T04:23:48.046Z,14.27
2022-10-18T04:26:15.732Z,13.20
2022-10-18T04:28:42.741Z,16.85
2022-10-18T04:31:09.538Z,15.10
2022-10-18T04:33:35.540Z,16.48
2022-10-18T04:36:01.312Z,17.67
2022-10-18T04:38:27.251Z,16.20
2022-10-18T04:40:53.010Z,14.55
2022-10-18T04:43:18.798Z,14.45
2022-10-18T04:45:45.568Z,12.48
2022-10-18T04:48:11.787Z,12.93
2022-10-18T04:50:37.597Z,14.32
2022-10-18T04:53:03.539Z,12.25
2022-10-18T04:55:29.288Z,13.52
2022-10-18T04:57:55.189Z,11.75
2022-10-18T05:00:21.038Z,14.73
2022-10-18T05:02:46.799Z,12.52
2022-10-18T05:05:14.167Z,14.75
2022-10-18T05:07:40.572Z,16.13
2022-10-18T05:10:06.708Z,16.02
2022-10-18T05:12:32.816Z,15.55
2022-10-18T05:14:58.817Z,17.10
2022-10-18T05:17:24.597Z,15.68
2022-10-18T05:19:50.375Z,19.98
2022-10-18T05:22:16.125Z,17.65
2022-10-18T05:24:41.864Z,18.90
2022-10-18T05:27:09.504Z,18.13
2022-10-18T05:29:35.252Z,14.35
2022-10-18T05:32:00.988Z,18.35
2022-10-18T05:34:31.141Z,17.23
2022-10-18T05:36:57.775Z,15.32
2022-10-18T05:39:23.623Z,16.10
2022-10-18T05:41:49.377Z,16.90
2022-10-18T05:44:15.252Z,15.60
2022-10-18T05:46:41.036Z,13.57
2022-10-18T05:49:07.046Z,12.57
2022-10-18T05:51:32.884Z,14.02
2022-10-18T05:53:58.948Z,15.07
2022-10-18T05:56:24.905Z,12.75
2022-10-18T05:58:51.929Z,17.02
2022-10-18T06:01:17.764Z,12.32
2022-10-18T06:03:43.571Z,10.70
2022-10-18T06:06:11.181Z,12.77
2022-10-18T06:08:38.687Z,10.65
2022-10-18T06:11:16.052Z,11.73
2022-10-18T06:13:44.216Z,13.13
2022-10-18T06:16:11.100Z,10.95
2022-10-18T06:18:37.202Z,11.48
2022-10-18T06:21:03.207Z,11.55
2022-10-18T06:23:29.211Z,10.70
2022-10-18T06:26:03.222Z,10.55
2022-10-18T06:28:29.789Z,10.60
2022-10-18T06:30:58.717Z,14.30
2022-10-18T06:33:24.953Z,13.10
2022-10-18T06:36:02.109Z,11.43
2022-10-18T06:38:29.251Z,12.57
2022-10-18T06:40:56.219Z,14.10
2022-10-18T06:43:22.512Z,15.32
2022-10-18T06:45:48.977Z,13.68
2022-10-18T06:48:15.441Z,15.20
2022-10-18T06:50:41.397Z,10.95
2022-10-18T06:53:08.351Z,13.70
2022-10-18T06:55:35.183Z,13.40
2022-10-18T06:58:01.377Z,12.15
2022-10-18T07:00:27.222Z,12.77
2022-10-18T07:02:52.982Z,10.60
2022-10-18T07:05:18.751Z,10.95
2022-10-18T07:07:44.472Z,9.77
2022-10-18T07:10:13.017Z,11.13
2022-10-18T07:12:39.189Z,16.20
2022-10-18T07:15:09.116Z,10.88
2022-10-18T07:17:35.286Z,12.90
2022-10-18T07:20:03.482Z,19.00
2022-10-18T07:22:30.481Z,14.70
2022-10-18T07:24:56.380Z,14.10
2022-10-18T07:27:22.228Z,13.55
2022-10-18T07:29:48.905Z,14.57
2022-10-18T07:32:15.177Z,19.23
2022-10-18T07:34:40.911Z,20.13
2022-10-18T07:37:07.130Z,19.42
2022-10-18T07:39:32.906Z,20.50
2022-10-18T07:41:58.646Z,23.00
2022-10-18T07:44:24.462Z,28.40
2022-10-18T07:46:50.229Z,26.27
2022-10-18T07:49:16.286Z,27.83
2022-10-18T07:51:42.632Z,25.70
2022-10-18T07:54:08.887Z,28.58
2022-10-18T07:56:34.821Z,29.05
2022-10-18T07:59:00.615Z,28.55
2022-10-18T08:01:26.450Z,24.88
2022-10-18T08:03:52.835Z,23.55
2022-10-18T08:06:20.426Z,21.83
2022-10-18T08:08:46.880Z,26.10
2022-10-18T08:11:19.625Z,29.10
2022-10-18T08:13:46.076Z,31.38
2022-10-18T08:16:14.170Z,32.83
2022-10-18T08:18:40.278Z,32.58
2022-10-18T08:21:08.489Z,31.48
2022-10-18T08:23:35.186Z,30.30
2022-10-18T08:26:06.653Z,30.42
2022-10-18T08:28:33.122Z,34.63
2022-10-18T08:31:12.213Z,31.75
2022-10-18T08:33:39.060Z,34.35
2022-10-18T08:36:07.308Z,31.25
2022-10-18T08:38:35.379Z,27.75
2022-10-18T08:41:22.095Z,31.52
2022-10-18T08:44:07.311Z,28.83
2022-10-18T08:46:36.323Z,26.00
2022-10-18T08:49:03.606Z,27.13
2022-10-18T08:51:37.076Z,27.17
2022-10-18T08:54:12.811Z,30.80
2022-10-18T08:56:41.368Z,27.95
2022-10-18T08:59:11.707Z,30.42
2022-10-18T09:02:04.852Z,34.38
2022-10-18T09:04:49.103Z,33.80
2022-10-18T09:07:24.750Z,35.05
2022-10-18T09:09:59.618Z,34.15
2022-10-18T09:13:19.433Z,29.98
2022-10-18T09:15:51.236Z,28.65
2022-10-18T09:18:22.665Z,23.10
2022-10-18T09:21:11.599Z,25.73
2022-10-18T09:23:46.649Z,22.73
2022-10-18T09:26:23.495Z,23.40
2022-10-18T09:31:57.097Z,21.48
2022-10-18T09:34:38.107Z,23.05
2022-10-18T09:37:04.430Z,25.35
2022-10-18T09:39:37.365Z,28.65
2022-10-18T09:42:34.357Z,31.15
2022-10-18T09:45:12.615Z,24.92
2022-10-18T09:47:47.275Z,23.17
2022-10-18T09:50:27.240Z,22.58
2022-10-18T09:53:12.197Z,22.52
2022-10-18T09:55:53.628Z,23.73
2022-10-18T09:58:22.110Z,24.40
2022-10-18T10:00:50.467Z,22.02
2022-10-18T10:03:16.321Z,21.75
2022-10-18T10:05:43.529Z,22.92
2022-10-18T10:08:09.920Z,16.05
2022-10-18T10:10:39.562Z,18.80
2022-10-18T10:13:21.411Z,22.40
2022-10-18T10:16:01.275Z,20.95
2022-10-18T10:18:31.011Z,15.27
2022-10-18T10:20:59.516Z,20.45
2022-10-18T10:23:52.126Z,20.15
2022-10-18T10:26:31.690Z,18.88
2022-10-18T10:28:57.613Z,16.15
2022-10-18T10:31:23.337Z,17.33
2022-10-18T10:34:00.516Z,17.67
2022-10-18T10:36:26.950Z,20.27
2022-10-18T10:39:18.325Z,14.93
2022-10-18T10:41:53.075Z,12.30
2022-10-18T10:44:22.566Z,14.00
2022-10-18T10:46:50.435Z,13.93
2022-10-18T10:49:39.253Z,11.57
2022-10-18T10:52:15.473Z,16.55
2022-10-18T10:54:51.609Z,13.02
2022-10-18T10:57:28.484Z,10.73
2022-10-18T10:59:58.885Z,15.52
2022-10-18T11:02:36.249Z,13.88
2022-10-18T11:05:25.284Z,13.18
2022-10-18T11:07:56.027Z,10.88
2022-10-18T11:10:30.286Z,9.13
2022-10-18T11:13:18.203Z,11.88
2022-10-18T11:15:51.974Z,10.63
2022-10-18T11:18:24.632Z,11.93
2022-10-18T11:20:57.528Z,10.45
2022-10-18T11:23:31.427Z,8.52
2022-10-18T11:25:57.149Z,12.27
2022-10-18T11:28:22.815Z,10.07
2022-10-18T11:31:03.976Z,16.35
2022-10-18T11:34:07.769Z,15.93
2022-10-18T11:36:46.212Z,15.05
2022-10-18T11:40:20.641Z,18.48
2022-10-18T11:43:20.241Z,15.98
2022-10-18T11:46:04.298Z,14.50
2022-10-18T11:49:15.320Z,12.25
2022-10-18T11:52:07.861Z,9.52
2022-10-18T11:54:54.281Z,9.65
2022-10-18T11:57:57.583Z,9.20
2022-10-18T12:00:38.934Z,8.38
2022-10-18T12:03:34.460Z,11.07
2022-10-18T12:06:11.298Z,9.48
2022-10-18T12:08:42.764Z,11.60
2022-10-18T12:11:15.141Z,11.18
2022-10-18T12:13:56.257Z,12.57
2022-10-18T12:16:45.623Z,14.85
2022-10-18T12:19:26.479Z,16.95
2022-10-18T12:21:55.690Z,19.50
2022-10-18T12:24:26.925Z,26.70
2022-10-18T12:26:58.148Z,18.85
2022-10-18T12:29:32.115Z,18.98
2022-10-18T12:32:26.308Z,16.70
2022-10-18T12:34:57.453Z,15.48
2022-10-18T12:37:26.964Z,14.95
2022-10-18T12:40:18.261Z,14.68
2022-10-18T12:42:48.602Z,14.10
2022-10-18T12:45:17.150Z,14.43
2022-10-18T12:47:43.179Z,15.18
2022-10-18T12:50:38.551Z,16.45
2022-10-18T12:53:18.320Z,18.50
2022-10-18T12:55:50.610Z,17.15
2022-10-18T12:58:27.316Z,19.77
2022-10-18T13:00:55.957Z,19.77
2022-10-18T13:03:24.504Z,18.40
2022-10-18T13:06:00.739Z,18.13
2022-10-18T13:08:27.629Z,19.20
2022-10-18T13:11:11.499Z,17.48
2022-10-18T13:14:05.801Z,17.67
2022-10-18T13:16:56.501Z,15.88
2022-10-18T13:20:07.634Z,20.63
2022-10-18T13:25:35.917Z,20.30
2022-10-18T13:28:27.216Z,21.85
2022-10-18T13:31:01.863Z,21.08
2022-10-18T13:33:30.282Z,20.50
2022-10-18T13:35:59.849Z,23.35
2022-10-18T13:38:54.955Z,21.73
2022-10-18T13:41:47.505Z,24.00
2022-10-18T13:44:31.277Z,22.98
2022-10-18T13:46:57.117Z,21.08
2022-10-18T13:49:39.056Z,26.10
2022-10-18T13:52:46.238Z,23.10
2022-10-18T13:55:30.135Z,27.70
2022-10-18T13:58:22.682Z,23.63
2022-10-18T14:01:19.812Z,23.70
2022-10-18T14:04:23.326Z,23.75
2022-10-18T14:06:51.150Z,23.63
2022-10-18T14:09:40.416Z,21.60
2022-10-18T14:12:37.411Z,20.00
2022-10-18T14:15:23.867Z,18.83
2022-10-18T14:18:05.814Z,19.60
2022-10-18T14:20:49.513Z,20.30
2022-10-18T14:23:26.816Z,22.00
2022-10-18T14:26:06.011Z,18.13
2022-10-18T14:28:55.210Z,19.60
2022-10-18T14:31:19.024Z,19.25
2022-10-18T14:33:57.043Z,18.65
2022-10-18T14:36:26.407Z,14.23
2022-10-18T14:39:04.088Z,16.10
2022-10-18T14:41:32.533Z,17.50
2022-10-18T14:44:13.575Z,19.08
2022-10-18T14:46:44.356Z,18.80
2022-10-18T14:49:11.674Z,17.85
2022-10-18T14:51:39.980Z,18.38
2022-10-18T14:54:07.633Z,20.90
2022-10-18T14:56:39.027Z,21.20
2022-10-18T14:59:15.330Z,19.85
2022-10-18T15:01:52.222Z,17.60
2022-10-18T15:04:18.621Z,19.63
2022-10-18T15:06:44.507Z,18.55
2022-10-18T15:09:12.229Z,17.63
2022-10-18T15:11:40.698Z,15.02
2022-10-18T15:14:14.555Z,13.93
2022-10-18T15:16:40.733Z,13.43
2022-10-18T15:19:27.189Z,14.25
2022-10-18T15:25:14.126Z,14.55
2022-10-18T15:27:44.177Z,13.60
2022-10-18T15:30:23.238Z,14.73
2022-10-18T15:32:52.035Z,13.95
2022-10-18T15:35:26.327Z,14.00
2022-10-18T15:37:55.095Z,12.02
2022-10-18T15:40:20.867Z,17.67
2022-10-18T15:42:48.533Z,15.30
2022-10-18T15:45:23.246Z,13.32
2022-10-18T15:48:09.916Z,15.57
2022-10-18T15:50:50.309Z,13.95
2022-10-18T15:53:25.264Z,13.98
2022-10-18T15:56:17.366Z,15.43
2022-10-18T15:58:47.140Z,15.90
2022-10-18T16:01:19.460Z,15.52
2022-10-18T16:03:46.505Z,17.98
2022-10-18T16:06:16.047Z,14.50
2022-10-18T16:08:52.216Z,12.20
2022-10-18T16:11:24.508Z,14.45
2022-10-18T16:13:54.089Z,12.73
2022-10-18T16:16:27.774Z,18.77
2022-10-18T16:18:54.461Z,14.18
2022-10-18T16:21:25.242Z,14.32
2022-10-18T16:23:51.093Z,15.05
2022-10-18T16:26:18.958Z,16.15
2022-10-18T16:28:45.593Z,15.00
2022-10-18T16:31:16.973Z,14.77
2022-10-18T16:33:43.549Z,17.95
2022-10-18T16:36:23.718Z,16.92
2022-10-18T16:38:50.145Z,20.33
2022-10-18T16:41:16.775Z,15.90
2022-10-18T16:43:44.674Z,15.23
2022-10-18T16:46:32.069Z,19.58
2022-10-18T16:48:58.268Z,17.02
2022-10-18T16:51:24.589Z,15.80
2022-10-18T16:53:52.616Z,17.25
2022-10-18T16:56:25.192Z,13.70
2022-10-18T16:58:51.397Z,17.88
2022-10-18T17:01:19.579Z,16.00
2022-10-18T17:03:46.133Z,16.52
2022-10-18T17:06:18.287Z,19.23
2022-10-18T17:08:44.764Z,15.13
2022-10-18T17:11:11.940Z,17.33
2022-10-18T17:13:37.758Z,20.65
2022-10-18T17:16:04.629Z,15.65
2022-10-18T17:18:30.994Z,17.45
2022-10-18T17:21:00.037Z,14.65
2022-10-18T17:23:25.970Z,15.00
2022-10-18T17:26:05.398Z,15.45
2022-10-18T17:28:37.256Z,14.88
2022-10-18T17:31:06.080Z,14.88
2022-10-18T17:33:32.041Z,19.48
2022-10-18T17:35:58.053Z,16.83
2022-10-18T17:38:23.872Z,16.88
2022-10-18T17:40:52.103Z,16.58
2022-10-18T17:43:18.642Z,18.08
2022-10-18T17:45:54.747Z,14.68
2022-10-18T17:48:20.777Z,14.90
2022-10-18T17:50:46.565Z,14.13
2022-10-18T17:53:12.574Z,11.90
2022-10-18T17:55:39.143Z,13.70
2022-10-18T17:58:05.189Z,17.42
2022-10-18T18:00:30.984Z,11.52
2022-10-18T18:02:57.813Z,17.08
2022-10-18T18:05:26.225Z,13.10
2022-10-18T18:07:52.039Z,14.10
2022-10-18T18:10:17.833Z,13.82
2022-10-18T18:12:44.879Z,14.85
2022-10-18T18:15:11.931Z,18.48
2022-10-18T18:17:56.013Z,13.27
2022-10-18T18:20:23.666Z,11.25
2022-10-18T18:22:50.905Z,13.98
2022-10-18T18:25:16.985Z,17.35
2022-10-18T18:27:42.965Z,14.23
2022-10-18T18:30:09.269Z,13.45
2022-10-18T18:32:35.434Z,16.17
2022-10-18T18:35:01.404Z,10.93
2022-10-18T18:37:27.355Z,13.20
2022-10-18T18:39:53.367Z,14.50
2022-10-18T18:42:19.092Z,10.25
2022-10-18T18:44:45.389Z,11.25
2022-10-18T18:47:13.317Z,10.52
2022-10-18T18:49:39.343Z,13.00
2022-10-18T18:52:05.081Z,13.93
2022-10-18T18:54:30.995Z,16.50
2022-10-18T18:56:57.702Z,15.65
2022-10-18T18:59:23.577Z,16.23
2022-10-18T19:01:49.455Z,12.88
2022-10-18T19:04:16.213Z,16.08
2022-10-18T19:06:43.997Z,13.23
2022-10-18T19:09:18.421Z,19.50
2022-10-18T19:11:46.409Z,15.45
2022-10-18T19:14:12.890Z,12.07
2022-10-18T19:16:49.715Z,22.30
2022-10-18T19:19:21.168Z,20.77
2022-10-18T19:21:58.558Z,15.27
2022-10-18T19:24:26.457Z,29.90
2022-10-18T19:26:57.964Z,19.63
2022-10-18T19:29:29.615Z,18.80
2022-10-18T19:31:57.870Z,12.30
2022-10-18T19:34:25.331Z,13.15
2022-10-18T19:36:51.465Z,17.70
2022-10-18T19:39:28.408Z,15.20
2022-10-18T19:41:56.513Z,13.60
2022-10-18T19:44:23.754Z,13.40
2022-10-18T19:46:49.645Z,16.55
2022-10-18T19:49:16.071Z,14.18
2022-10-18T19:51:42.438Z,14.27
2022-10-18T19:54:11.257Z,14.10
2022-10-18T19:56:37.618Z,12.20
2022-10-18T19:59:03.577Z,18.98
2022-10-18T20:01:30.149Z,13.35
2022-10-18T20:03:56.334Z,12.75
2022-10-18T20:06:22.392Z,16.92
2022-10-18T20:08:48.949Z,15.52
2022-10-18T20:11:21.014Z,16.00
2022-10-18T20:13:47.298Z,13.20
2022-10-18T20:16:15.137Z,14.43
2022-10-18T20:18:44.417Z,18.77
2022-10-18T20:21:12.985Z,11.38
2022-10-18T20:23:40.381Z,15.98
2022-10-18T20:26:17.941Z,11.90
2022-10-18T20:28:56.408Z,20.27
2022-10-18T20:31:24.320Z,9.05
2022-10-18T20:33:58.865Z,10.60
2022-10-18T20:36:26.031Z,9.60
2022-10-18T20:38:52.642Z,11.20
2022-10-18T20:41:24.445Z,10.30
2022-10-18T20:43:58.381Z,13.75
2022-10-18T20:46:25.271Z,10.38
2022-10-18T20:48:52.296Z,10.45
2022-10-18T20:51:19.126Z,14.30
2022-10-18T20:53:45.709Z,10.75
2022-10-18T20:56:14.112Z,11.40
2022-10-18T20:58:41.894Z,13.65
2022-10-18T21:01:10.502Z,10.57
2022-10-18T21:03:43.459Z,12.20
2022-10-18T21:06:09.176Z,14.65
2022-10-18T21:08:35.057Z,14.48
2022-10-18T21:11:01.059Z,13.85
2022-10-18T21:13:26.824Z,16.50
2022-10-18T21:15:56.439Z,13.68
2022-10-18T21:18:24.136Z,13.80
2022-10-18T21:20:49.967Z,11.20
2022-10-18T21:23:15.812Z,16.88
2022-10-18T21:25:48.896Z,12.43
2022-10-18T21:28:16.892Z,14.60
2022-10-18T21:30:42.826Z,22.63
2022-10-18T21:33:08.674Z,16.92
2022-10-18T21:35:36.091Z,13.23
2022-10-18T21:38:02.748Z,12.75
2022-10-18T21:40:28.613Z,14.27
2022-10-18T21:42:54.556Z,11.05
2022-10-18T21:45:20.357Z,14.38
2022-10-18T21:47:46.815Z,14.75
2022-10-18T21:50:12.778Z,12.15
2022-10-18T21:52:38.598Z,14.68
2022-10-18T21:55:06.441Z,12.45
2022-10-18T21:57:33.621Z,12.35
2022-10-18T21:59:59.498Z,9.25
2022-10-18T22:02:25.392Z,7.75
2022-10-18T22:04:51.554Z,8.02
2022-10-18T22:07:17.321Z,13.45
2022-10-18T22:09:43.183Z,11.48
2022-10-18T22:12:10.832Z,6.95
2022-10-18T22:14:36.956Z,8.98
2022-10-18T22:17:03.056Z,10.93
2022-10-18T22:19:28.916Z,10.25
2022-10-18T22:21:54.759Z,12.18
2022-10-18T22:24:20.517Z,12.13
2022-10-18T22:26:46.965Z,16.50
2022-10-18T22:29:18.052Z,14.48
2022-10-18T22:31:46.852Z,11.40
2022-10-18T22:34:15.709Z,13.95
2022-10-18T22:36:41.954Z,11.77
2022-10-18T22:39:08.702Z,17.92
2022-10-18T22:41:34.990Z,11.75
2022-10-18T22:44:03.514Z,10.80
2022-10-18T22:46:30.330Z,12.30
2022-10-18T22:48:56.091Z,17.02
2022-10-18T22:51:22.032Z,8.95
2022-10-18T22:53:47.916Z,12.90
2022-10-18T22:56:16.873Z,12.68
2022-10-18T22:58:42.617Z,12.43
2022-10-18T23:01:12.250Z,14.32
2022-10-18T23:03:38.864Z,12.60
2022-10-18T23:06:16.354Z,14.25
2022-10-18T23:08:42.133Z,10.23
2022-10-18T23:11:07.881Z,9.60
2022-10-18T23:13:37.370Z,13.85
2022-10-18T23:16:05.586Z,10.40
2022-10-18T23:18:32.248Z,8.02
2022-10-18T23:21:13.936Z,12.00
2022-10-18T23:23:42.180Z,14.98
2022-10-18T23:26:11.087Z,11.75
2022-10-18T23:28:39.209Z,10.02
2022-10-18T23:31:07.052Z,11.18
2022-10-18T23:33:32.787Z,10.07
2022-10-18T23:35:58.852Z,10.88
2022-10-18T23:38:24.591Z,8.55
2022-10-18T23:40:50.354Z,12.93
2022-10-18T23:43:16.098Z,7.40
2022-10-18T23:45:41.892Z,8.48
2022-10-18T23:48:07.675Z,13.40
2022-10-18T23:50:33.644Z,12.10
2022-10-18T23:52:59.435Z,19.75
2022-10-18T23:55:25.226Z,11.88
2022-10-18T23:57:51.007Z,13.50
